Time;durP1;ratioP1;P1;durP2;ratioP2;P2;SDS_P1;SDS_P2;PMS_P1;PMS_P2;Temp;Humidity;BMP_temperature;BMP_pressure;BME280_temperature;BME280_humidity;BME280_pressure;Samples;Min_cycle;Max_cycle;Signal;HPM_P1;HPM_P2
2022/12/06 00:01:34;;;;;;;3.80;3.50;;;21.20;69.70;;;;;;5040545;28;20483;-37
2022/12/06 00:04:03;;;;;;;3.57;3.20;;;21.30;69.70;;;;;;5050047;28;20485;-36
2022/12/06 00:06:34;;;;;;;5.00;3.10;;;21.30;69.70;;;;;;5043425;28;20826;-36
2022/12/06 00:09:01;;;;;;;3.43;3.13;;;21.20;69.80;;;;;;5051422;28;20444;-37
2022/12/06 00:11:29;;;;;;;4.23;2.77;;;21.20;69.80;;;;;;5043053;28;20469;-39
2022/12/06 00:13:58;;;;;;;3.47;3.17;;;21.20;69.90;;;;;;5042663;28;20465;-37
2022/12/06 00:16:26;;;;;;;3.93;2.90;;;21.20;69.80;;;;;;5038508;28;20461;-37
2022/12/06 00:18:53;;;;;;;3.17;2.87;;;21.20;69.90;;;;;;5033910;28;20465;-36
2022/12/06 00:21:22;;;;;;;3.53;3.00;;;21.20;69.80;;;;;;5045286;28;20549;-37
2022/12/06 00:23:52;;;;;;;3.23;2.73;;;21.20;69.90;;;;;;5048774;28;20194;-36
2022/12/06 00:26:20;;;;;;;4.13;3.27;;;21.20;70.00;;;;;;5041663;28;20477;-36
2022/12/06 00:28:47;;;;;;;3.13;2.83;;;21.20;70.00;;;;;;5048541;28;20457;-36
2022/12/06 00:31:17;;;;;;;4.63;4.23;;;21.20;70.00;;;;;;5046043;28;20480;-36
2022/12/06 00:33:44;;;;;;;5.10;4.70;;;21.00;69.20;;;;;;5043997;28;20518;-37
2022/12/06 00:36:14;;;;;;;4.60;4.17;;;21.00;68.90;;;;;;5036237;28;20462;-36
2022/12/06 00:38:41;;;;;;;6.73;4.10;;;21.10;68.40;;;;;;5045360;28;20817;-37
2022/12/06 00:41:12;;;;;;;4.70;4.30;;;21.10;68.40;;;;;;5040120;28;20604;-37
2022/12/06 00:43:39;;;;;;;4.63;4.20;;;21.20;68.40;;;;;;5042463;28;20483;-36
2022/12/06 00:46:07;;;;;;;6.73;3.93;;;21.20;68.40;;;;;;5044117;28;20483;-38
2022/12/06 00:48:34;;;;;;;3.67;3.37;;;21.20;68.50;;;;;;5048305;28;20465;-37
2022/12/06 00:51:01;;;;;;;6.37;3.80;;;21.20;68.50;;;;;;5045168;28;20458;-37
2022/12/06 00:53:29;;;;;;;5.60;4.37;;;21.20;68.50;;;;;;5046686;28;20893;-39
2022/12/06 00:55:56;;;;;;;5.10;3.60;;;21.20;68.60;;;;;;5034505;28;20568;-36
2022/12/06 00:58:27;;;;;;;4.70;3.60;;;21.20;68.60;;;;;;5044592;28;20461;-36
2022/12/06 01:00:54;;;;;;;4.43;3.70;;;21.20;68.70;;;;;;5044667;28;20889;-36
2022/12/06 01:03:21;;;;;;;5.03;4.57;;;21.20;68.60;;;;;;5045957;28;20468;-37
2022/12/06 01:05:50;;;;;;;4.90;4.50;;;21.20;68.70;;;;;;5052998;28;20485;-36
2022/12/06 01:08:18;;;;;;;5.20;3.93;;;21.20;68.80;;;;;;5049279;28;20560;-37
2022/12/06 01:10:52;;;;;;;5.43;3.67;;;21.20;68.70;;;;;;5054650;28;20869;-37
2022/12/06 01:13:18;;;;;;;3.60;3.30;;;21.20;68.80;;;;;;5047981;28;20453;-37
2022/12/06 01:15:46;;;;;;;3.73;3.43;;;21.20;68.90;;;;;;5047516;28;20187;-37
2022/12/06 01:18:13;;;;;;;3.50;3.20;;;21.20;68.90;;;;;;5051465;28;20465;-36
2022/12/06 01:20:40;;;;;;;4.80;4.30;;;21.20;68.80;;;;;;5049912;28;20477;-36
2022/12/06 01:23:07;;;;;;;3.47;3.17;;;21.20;68.90;;;;;;5049992;28;20456;-38
2022/12/06 01:25:33;;;;;;;3.70;3.30;;;21.20;68.90;;;;;;5044916;28;20474;-37
2022/12/06 01:28:00;;;;;;;3.00;2.80;;;21.20;69.70;;;;;;5044217;28;20491;-37
2022/12/06 01:30:28;;;;;;;5.30;4.50;;;21.20;68.90;;;;;;5047594;28;20886;-38
2022/12/06 01:32:56;;;;;;;3.60;3.10;;;21.20;68.90;;;;;;5048607;28;20464;-37
2022/12/06 01:35:22;;;;;;;4.23;3.83;;;21.20;68.90;;;;;;5052029;28;20466;-36
2022/12/06 01:37:49;;;;;;;4.00;3.70;;;21.20;68.90;;;;;;5043768;28;20507;-38
2022/12/06 01:40:16;;;;;;;3.43;3.13;;;21.20;69.10;;;;;;5046992;28;20460;-37
2022/12/06 01:42:42;;;;;;;3.60;3.30;;;21.20;69.10;;;;;;5045720;28;20976;-37
2022/12/06 01:45:10;;;;;;;3.77;3.30;;;21.20;69.10;;;;;;5046965;28;20978;-37
2022/12/06 01:47:41;;;;;;;4.03;3.57;;;21.20;69.00;;;;;;5048425;28;20462;-38
2022/12/06 01:50:13;;;;;;;4.30;3.90;;;21.20;69.10;;;;;;5048145;28;20461;-36
2022/12/06 01:52:48;;;;;;;6.93;3.80;;;21.20;69.10;;;;;;5038272;28;20868;-36
2022/12/06 01:55:16;;;;;;;4.03;3.70;;;21.20;69.10;;;;;;5050466;28;20583;-36
2022/12/06 01:57:43;;;;;;;3.80;3.40;;;21.20;69.10;;;;;;5042166;28;20515;-36
2022/12/06 02:00:10;;;;;;;3.80;3.33;;;21.20;69.10;;;;;;5047815;28;20454;-36
2022/12/06 02:02:37;;;;;;;3.90;3.47;;;21.20;69.00;;;;;;5043673;28;20454;-36
2022/12/06 02:05:05;;;;;;;4.03;3.63;;;21.20;69.10;;;;;;5046510;28;20474;-36
2022/12/06 02:07:33;;;;;;;3.33;3.03;;;21.20;69.00;;;;;;5042634;28;20457;-37
2022/12/06 02:10:01;;;;;;;3.70;3.40;;;21.20;69.10;;;;;;5049108;28;20466;-37
2022/12/06 02:12:27;;;;;;;4.40;4.00;;;21.20;69.10;;;;;;5035716;28;20211;-38
2022/12/06 02:14:55;;;;;;;3.83;3.53;;;21.20;69.10;;;;;;5047136;28;20465;-36
2022/12/06 02:17:33;;;;;;;3.63;3.17;;;21.10;69.10;;;;;;5048670;28;20552;-36
2022/12/06 02:20:15;;;;;;;3.30;3.00;;;21.20;69.10;;;;;;5040876;28;20482;-38
2022/12/06 02:23:21;;;;;;;3.17;2.90;;;21.20;69.20;;;;;;5045408;28;20448;-37
2022/12/06 02:26:15;;;;;;;4.60;3.47;;;21.20;69.10;;;;;;5008881;28;20857;-36
2022/12/06 02:29:15;;;;;;;4.20;3.80;;;21.10;69.00;;;;;;5044207;28;21153;-39
2022/12/06 02:31:50;;;;;;;3.60;3.30;;;21.20;69.10;;;;;;5040600;28;20193;-36
2022/12/06 02:34:22;;;;;;;4.57;3.10;;;21.20;69.80;;;;;;5048611;28;20963;-36
2022/12/06 02:36:53;;;;;;;3.60;3.07;;;21.20;69.20;;;;;;5042755;28;20469;-36
2022/12/06 02:39:26;;;;;;;3.90;3.50;;;21.20;69.10;;;;;;5046092;28;20467;-37
2022/12/06 02:41:59;;;;;;;3.20;2.90;;;21.10;69.10;;;;;;5039119;28;20454;-36
2022/12/06 02:44:31;;;;;;;3.97;3.67;;;21.20;69.20;;;;;;5039065;28;20457;-36
2022/12/06 02:47:01;;;;;;;3.33;3.13;;;21.20;69.10;;;;;;5039836;28;20895;-36
2022/12/06 02:49:32;;;;;;;3.90;3.55;;;21.20;69.10;;;;;;5048758;28;20475;-37
2022/12/06 02:51:59;;;;;;;3.50;3.17;;;21.10;69.10;;;;;;5041308;28;20199;-36
2022/12/06 02:54:28;;;;;;;3.90;3.13;;;21.10;69.10;;;;;;5044064;28;20223;-36
2022/12/06 02:56:55;;;;;;;4.07;3.63;;;21.20;69.10;;;;;;5042857;28;20484;-39
2022/12/06 02:59:22;;;;;;;3.90;3.15;;;21.20;69.10;;;;;;5042167;28;20206;-37
2022/12/06 03:01:52;;;;;;;3.80;3.50;;;21.20;69.10;;;;;;5043983;28;20198;-37
2022/12/06 03:04:50;;;;;;;4.13;3.73;;;21.20;69.10;;;;;;5042000;28;20960;-37
2022/12/06 03:07:34;;;;;;;3.85;3.55;;;21.20;69.00;;;;;;5041259;28;20462;-36
2022/12/06 03:10:31;;;;;;;3.00;2.80;;;21.20;69.00;;;;;;5036077;28;20230;-36
2022/12/06 03:13:06;;;;;;;3.70;3.40;;;21.20;69.00;;;;;;5042159;28;20997;-36
2022/12/06 03:15:40;;;;;;;3.27;2.97;;;21.10;69.00;;;;;;5044043;28;20453;-36
2022/12/06 03:18:15;;;;;;;4.43;3.30;;;21.20;69.00;;;;;;5048089;28;20794;-38
2022/12/06 03:20:49;;;;;;;3.27;2.97;;;21.20;69.00;;;;;;5040622;28;20872;-36
2022/12/06 03:23:20;;;;;;;4.03;3.17;;;21.20;69.00;;;;;;5043774;28;20464;-39
2022/12/06 03:25:49;;;;;;;3.60;3.00;;;21.20;69.00;;;;;;5048335;28;20246;-36
2022/12/06 03:28:18;;;;;;;3.45;3.25;;;21.20;69.00;;;;;;5043882;28;20202;-36
2022/12/06 03:37:32;;;;;;;3.40;3.10;;;21.20;69.00;;;;;;5040160;28;20798;-37
2022/12/06 03:40:10;;;;;;;3.15;2.85;;;21.10;68.90;;;;;;5035083;28;20961;-37
2022/12/06 03:42:37;;;;;;;3.20;3.00;;;21.10;68.90;;;;;;5048475;28;20206;-36
2022/12/06 03:45:05;;;;;;;3.43;2.97;;;21.10;68.90;;;;;;5037165;28;20465;-37
2022/12/06 03:47:37;;;;;;;3.73;3.17;;;21.10;69.00;;;;;;5046504;28;20782;-37
2022/12/06 03:50:08;;;;;;;3.50;3.20;;;21.10;68.90;;;;;;5039561;28;20908;-37
2022/12/06 03:52:38;;;;;;;3.40;3.10;;;21.10;68.80;;;;;;5046269;28;20289;-36
2022/12/06 03:55:05;;;;;;;3.50;3.20;;;21.10;68.80;;;;;;5041138;28;20202;-37
2022/12/06 03:57:32;;;;;;;4.30;4.00;;;21.10;68.90;;;;;;5050055;28;20441;-36
2022/12/06 03:59:59;;;;;;;3.30;3.00;;;21.10;68.90;;;;;;5034317;28;20804;-36
2022/12/06 04:02:25;;;;;;;3.70;3.40;;;21.10;68.90;;;;;;5043523;28;20790;-37
2022/12/06 04:04:52;;;;;;;2.83;2.63;;;21.20;68.90;;;;;;5044836;28;20831;-36
2022/12/06 04:07:20;;;;;;;2.90;2.70;;;21.10;68.80;;;;;;5035798;28;21055;-36
2022/12/06 04:10:01;;;;;;;2.77;2.57;;;21.10;68.90;;;;;;5040467;28;20458;-36
2022/12/06 04:15:12;;;;;;;3.70;3.40;;;21.00;68.90;;;;;;5040454;28;20211;-37
2022/12/06 04:20:24;;;;;;;3.27;3.07;;;21.00;69.20;;;;;;5045749;28;20476;-37
2022/12/06 04:23:02;;;;;;;3.40;3.10;;;20.90;69.20;;;;;;5044220;28;20453;-37
2022/12/06 04:25:30;;;;;;;3.08;2.78;;;20.90;69.30;;;;;;5047396;28;20485;-36
2022/12/06 04:38:55;;;;;;;3.60;3.25;;;21.00;69.90;;;;;;5040173;28;20221;-36
2022/12/06 04:44:07;;;;;;;2.80;2.60;;;21.00;68.90;;;;;;5036642;28;21089;-36
2022/12/06 04:46:34;;;;;;;3.50;3.20;;;21.10;68.90;;;;;;5046042;28;21039;-36
2022/12/06 04:49:02;;;;;;;3.50;3.20;;;21.10;68.90;;;;;;5039181;28;20658;-36
2022/12/06 04:51:28;;;;;;;3.35;3.05;;;21.10;68.70;;;;;;5039271;28;20508;-38
2022/12/06 04:53:55;;;;;;;3.10;2.90;;;21.10;68.80;;;;;;5043364;28;20657;-36
2022/12/06 04:56:23;;;;;;;2.95;2.75;;;21.10;68.70;;;;;;5046407;28;20567;-36
2022/12/06 05:02:14;;;;;;;3.60;3.30;;;21.10;68.80;;;;;;5040669;28;20519;-36
2022/12/06 05:04:41;;;;;;;3.17;2.95;;;21.10;68.70;;;;;;5047101;28;20218;-37
2022/12/06 05:07:10;;;;;;;2.90;2.60;;;21.10;68.70;;;;;;5045581;28;20223;-36
2022/12/06 05:09:37;;;;;;;3.70;3.40;;;21.10;68.60;;;;;;5050197;28;20468;-37
2022/12/06 05:12:05;;;;;;;2.60;2.40;;;21.10;68.70;;;;;;5044211;28;20466;-37
2022/12/06 05:14:32;;;;;;;3.47;3.17;;;21.10;68.60;;;;;;5034348;28;20457;-36
2022/12/06 05:16:59;;;;;;;3.50;3.20;;;21.10;68.60;;;;;;5044231;28;20473;-36
2022/12/06 05:19:26;;;;;;;3.10;2.90;;;21.10;68.70;;;;;;5050102;28;20446;-37
2022/12/06 05:21:53;;;;;;;3.17;2.92;;;21.10;68.70;;;;;;5044528;28;21018;-36
2022/12/06 05:24:19;;;;;;;3.57;3.27;;;21.10;68.60;;;;;;5041525;28;20268;-36
2022/12/06 05:26:46;;;;;;;3.43;3.13;;;21.10;68.60;;;;;;5046052;28;22568;-36
2022/12/06 05:29:14;;;;;;;3.03;2.50;;;21.10;68.60;;;;;;5048705;28;20465;-35
2022/12/06 05:31:41;;;;;;;3.30;3.00;;;21.10;68.50;;;;;;5045271;28;20489;-36
2022/12/06 05:34:09;;;;;;;2.83;2.63;;;21.10;68.60;;;;;;5046636;28;20473;-37
2022/12/06 05:36:35;;;;;;;3.03;2.83;;;21.10;68.70;;;;;;5042858;28;20473;-36
2022/12/06 05:39:03;;;;;;;2.93;2.73;;;21.10;68.60;;;;;;5043465;28;20433;-37
2022/12/06 05:41:29;;;;;;;3.17;2.87;;;21.10;68.50;;;;;;5035276;28;20469;-36
2022/12/06 05:43:56;;;;;;;3.53;2.97;;;21.10;68.50;;;;;;5031636;28;20532;-36
2022/12/06 05:46:24;;;;;;;2.70;2.47;;;21.10;68.50;;;;;;5044612;28;20481;-36
2022/12/06 05:48:51;;;;;;;2.83;2.60;;;21.10;68.40;;;;;;5041769;28;20453;-36
2022/12/06 05:51:17;;;;;;;2.83;2.50;;;21.20;68.50;;;;;;5049397;28;20484;-37
2022/12/06 05:53:44;;;;;;;3.35;3.00;;;21.20;68.20;;;;;;5042594;28;20461;-37
2022/12/06 05:56:12;;;;;;;2.90;2.70;;;21.30;68.20;;;;;;5042631;28;20192;-36
2022/12/06 05:58:39;;;;;;;3.27;3.00;;;21.30;68.20;;;;;;5052022;28;20448;-38
2022/12/06 06:01:07;;;;;;;3.03;2.73;;;21.30;68.20;;;;;;5042062;28;20454;-36
2022/12/06 06:03:35;;;;;;;3.03;2.83;;;21.30;68.10;;;;;;5047851;28;20457;-36
2022/12/06 06:06:03;;;;;;;2.63;2.43;;;21.30;68.20;;;;;;5043384;28;20833;-37
2022/12/06 06:08:30;;;;;;;2.97;2.67;;;21.30;68.10;;;;;;5049764;28;20987;-38
2022/12/06 06:10:57;;;;;;;2.87;2.60;;;21.30;68.00;;;;;;5033888;28;20442;-37
2022/12/06 06:13:24;;;;;;;3.30;3.00;;;21.40;68.00;;;;;;5048694;28;20508;-37
2022/12/06 06:15:51;;;;;;;2.87;2.60;;;21.40;68.10;;;;;;5043280;28;21007;-37
2022/12/06 06:18:18;;;;;;;2.50;2.30;;;21.40;68.00;;;;;;5050695;28;20457;-37
2022/12/06 06:20:50;;;;;;;3.40;2.40;;;21.30;68.00;;;;;;5037479;28;20474;-37
2022/12/06 06:23:17;;;;;;;2.70;2.50;;;21.30;67.90;;;;;;5044567;28;20870;-37
2022/12/06 06:25:44;;;;;;;2.87;2.60;;;21.30;68.00;;;;;;5041572;28;20485;-37
2022/12/06 06:28:11;;;;;;;2.80;2.60;;;21.30;68.00;;;;;;5044894;28;20447;-38
2022/12/06 06:30:37;;;;;;;2.60;2.43;;;21.30;68.10;;;;;;5047646;28;20905;-37
2022/12/06 06:33:04;;;;;;;2.97;2.77;;;21.30;68.10;;;;;;5050513;28;20454;-37
2022/12/06 06:35:31;;;;;;;2.77;2.57;;;21.30;68.10;;;;;;5045279;28;20810;-37
2022/12/06 06:37:59;;;;;;;2.90;2.70;;;21.20;68.00;;;;;;5051188;28;20446;-37
2022/12/06 06:40:25;;;;;;;3.07;2.80;;;21.30;68.20;;;;;;5044351;28;20455;-36
2022/12/06 06:42:52;;;;;;;3.00;2.80;;;21.30;68.20;;;;;;5045030;28;20473;-36
2022/12/06 06:45:19;;;;;;;3.20;2.97;;;21.20;68.20;;;;;;5042772;28;20989;-37
2022/12/06 06:47:45;;;;;;;2.80;2.60;;;21.20;68.40;;;;;;5048192;28;20476;-37
2022/12/06 06:50:12;;;;;;;3.03;2.77;;;21.20;68.60;;;;;;5051478;28;20442;-37
2022/12/06 06:52:39;;;;;;;2.90;2.70;;;21.20;68.60;;;;;;5050570;28;20459;-38
2022/12/06 06:55:08;;;;;;;2.90;2.70;;;21.20;68.60;;;;;;5039081;28;20458;-36
2022/12/06 06:57:35;;;;;;;2.83;2.60;;;21.20;68.60;;;;;;5044627;28;20518;-37
2022/12/06 07:00:03;;;;;;;2.30;2.10;;;21.20;68.60;;;;;;5044167;28;20825;-42
2022/12/06 07:02:30;;;;;;;2.27;2.07;;;21.20;68.60;;;;;;5046625;28;20453;-36
2022/12/06 07:04:57;;;;;;;2.67;2.33;;;21.20;68.60;;;;;;5052314;28;20450;-37
2022/12/06 07:07:23;;;;;;;2.60;2.40;;;21.20;68.60;;;;;;5048641;28;20488;-37
2022/12/06 07:09:50;;;;;;;3.17;2.87;;;21.20;68.60;;;;;;5048680;28;20462;-37
2022/12/06 07:12:18;;;;;;;2.50;2.40;;;21.20;68.60;;;;;;5047368;28;20442;-37
2022/12/06 07:14:45;;;;;;;2.43;2.23;;;21.30;68.60;;;;;;5049651;28;20469;-37
2022/12/06 07:17:11;;;;;;;3.30;3.00;;;21.20;68.60;;;;;;5043682;28;20975;-37
2022/12/06 07:19:38;;;;;;;2.43;2.23;;;21.20;68.60;;;;;;5052212;28;20985;-37
2022/12/06 07:22:05;;;;;;;2.27;2.07;;;21.30;68.70;;;;;;5049790;28;20544;-37
2022/12/06 07:24:32;;;;;;;2.80;2.60;;;21.30;68.60;;;;;;5052136;28;20461;-38
2022/12/06 07:26:59;;;;;;;2.50;2.30;;;21.30;68.60;;;;;;5041304;28;20478;-37
2022/12/06 07:29:27;;;;;;;2.50;2.30;;;21.30;68.60;;;;;;5047488;28;20461;-39
2022/12/06 07:31:54;;;;;;;2.63;2.43;;;21.30;68.60;;;;;;5043860;28;20634;-40
2022/12/06 07:34:22;;;;;;;2.70;2.50;;;21.30;68.60;;;;;;5049474;28;20442;-38
2022/12/06 07:36:49;;;;;;;2.23;2.03;;;21.30;68.60;;;;;;5046068;28;20457;-37
2022/12/06 07:39:15;;;;;;;2.50;2.13;;;21.30;68.60;;;;;;5052176;28;20446;-37
2022/12/06 07:47:12;;;;;;;2.40;2.20;;;21.30;68.60;;;;;;5038176;28;20488;-38
2022/12/06 07:49:39;;;;;;;3.50;2.80;;;21.30;68.70;;;;;;5050926;28;20468;-37
2022/12/06 07:52:05;;;;;;;2.50;2.30;;;21.30;68.70;;;;;;5046931;28;20458;-37
2022/12/06 07:54:32;;;;;;;2.87;2.67;;;21.20;68.60;;;;;;5051660;28;20469;-39
2022/12/06 07:56:59;;;;;;;2.60;2.40;;;21.20;68.60;;;;;;5046457;28;20988;-37
2022/12/06 07:59:27;;;;;;;2.40;2.20;;;21.30;68.70;;;;;;5046840;28;20489;-37
2022/12/06 08:01:54;;;;;;;2.57;2.37;;;21.30;68.60;;;;;;5043182;28;20472;-37
2022/12/06 08:04:21;;;;;;;2.57;2.37;;;21.20;68.60;;;;;;5051136;28;20442;-38
2022/12/06 08:06:48;;;;;;;2.40;2.20;;;21.20;68.70;;;;;;5047518;28;20531;-37
2022/12/06 08:09:14;;;;;;;2.63;2.43;;;21.20;68.70;;;;;;5046405;28;20468;-37
2022/12/06 08:11:41;;;;;;;2.60;2.10;;;21.20;69.60;;;;;;5041509;28;20829;-37
2022/12/06 08:14:09;;;;;;;2.27;2.07;;;21.20;68.80;;;;;;5046055;28;20454;-37
2022/12/06 08:16:37;;;;;;;2.30;2.10;;;21.20;68.90;;;;;;5041132;28;20966;-37
2022/12/06 08:19:04;;;;;;;2.20;2.00;;;21.30;69.00;;;;;;5048145;28;20471;-38
2022/12/06 08:21:31;;;;;;;2.47;2.27;;;21.20;68.90;;;;;;5042847;28;20497;-37
2022/12/06 08:23:58;;;;;;;2.60;2.40;;;21.20;68.90;;;;;;5048812;28;20442;-37
2022/12/06 08:26:24;;;;;;;4.17;2.83;;;21.30;69.20;;;;;;5035482;28;20463;-37
2022/12/06 08:28:51;;;;;;;3.80;2.50;;;21.30;69.70;;;;;;5046857;28;20457;-37
2022/12/06 08:31:20;;;;;;;2.47;2.27;;;21.20;70.00;;;;;;5048840;28;20458;-37
2022/12/06 08:33:48;;;;;;;2.90;2.70;;;21.30;69.90;;;;;;5050087;28;20541;-37
2022/12/06 08:36:17;;;;;;;2.83;2.63;;;21.30;69.30;;;;;;5040197;28;20469;-37
2022/12/06 08:38:45;;;;;;;2.73;2.40;;;21.20;69.60;;;;;;5038516;28;20468;-36
2022/12/06 08:43:53;;;;;;;2.53;2.13;;;21.30;70.30;;;;;;5034896;28;20853;-37
2022/12/06 08:46:19;;;;;;;2.60;2.40;;;21.30;70.20;;;;;;5039021;28;20536;-39
2022/12/06 08:48:47;;;;;;;4.10;2.70;;;21.20;70.10;;;;;;5043292;28;20453;-38
2022/12/06 08:51:14;;;;;;;2.93;2.60;;;21.30;70.10;;;;;;5036006;28;21037;-35
2022/12/06 08:53:41;;;;;;;2.50;2.30;;;21.20;70.30;;;;;;5045741;28;20480;-35
2022/12/06 08:56:08;;;;;;;3.70;3.40;;;21.10;69.30;;;;;;5040456;28;20916;-34
2022/12/06 08:58:35;;;;;;;3.43;3.13;;;21.30;68.10;;;;;;5039030;28;20485;-37
2022/12/06 09:01:10;;;;;;;3.40;3.10;;;21.30;68.00;;;;;;5044297;28;20461;-39
2022/12/06 09:03:36;;;;;;;3.40;3.10;;;21.20;68.50;;;;;;5047288;28;20967;-37
2022/12/06 09:06:04;;;;;;;3.47;3.17;;;21.20;69.00;;;;;;5049517;28;20469;-37
2022/12/06 09:08:31;;;;;;;2.90;2.70;;;21.20;68.60;;;;;;5050981;28;20478;-37
2022/12/06 09:10:58;;;;;;;3.77;3.47;;;21.20;68.90;;;;;;5042849;28;20465;-37
2022/12/06 09:13:25;;;;;;;2.73;2.53;;;21.30;68.60;;;;;;5048548;28;20437;-38
2022/12/06 09:15:51;;;;;;;2.80;2.60;;;21.30;68.40;;;;;;5034832;28;20476;-37
2022/12/06 09:18:18;;;;;;;2.53;2.33;;;21.30;68.30;;;;;;5042142;28;20453;-38
2022/12/06 09:20:45;;;;;;;2.77;2.57;;;21.20;68.40;;;;;;5040474;28;20473;-38
2022/12/06 09:23:13;;;;;;;2.83;2.63;;;21.20;68.60;;;;;;5045524;28;20450;-37
2022/12/06 09:25:41;;;;;;;3.57;3.30;;;21.10;68.60;;;;;;5047868;28;20502;-37
2022/12/06 09:28:08;;;;;;;3.30;3.00;;;21.10;68.70;;;;;;5046194;28;20485;-38
2022/12/06 09:30:35;;;;;;;3.30;3.00;;;21.10;68.70;;;;;;5049400;28;20480;-37
2022/12/06 09:33:01;;;;;;;3.03;2.60;;;21.10;68.70;;;;;;5042723;28;20528;-38
2022/12/06 09:35:28;;;;;;;3.63;3.20;;;21.10;68.60;;;;;;5049769;28;20489;-38
2022/12/06 09:37:55;;;;;;;3.30;3.10;;;21.20;68.70;;;;;;5047884;28;20469;-37
2022/12/06 09:40:31;;;;;;;2.80;2.60;;;21.20;68.60;;;;;;5051921;28;20453;-37
2022/12/06 09:43:05;;;;;;;2.63;2.43;;;21.20;68.60;;;;;;5040519;28;20472;-37
2022/12/06 09:46:03;;;;;;;2.97;2.77;;;21.20;68.50;;;;;;5047726;28;20452;-37
2022/12/06 09:48:50;;;;;;;2.90;2.70;;;21.30;68.40;;;;;;5030862;28;20543;-38
2022/12/06 09:51:26;;;;;;;3.37;3.07;;;21.30;68.70;;;;;;5044451;28;20461;-38
2022/12/06 09:54:07;;;;;;;4.30;3.28;;;21.40;68.60;;;;;;5053561;28;20449;-38
2022/12/06 09:56:42;;;;;;;3.80;3.50;;;21.40;68.50;;;;;;5046347;28;20199;-37
2022/12/06 09:59:16;;;;;;;3.57;3.27;;;21.40;68.80;;;;;;5046527;28;20790;-38
2022/12/06 10:01:58;;;;;;;3.93;3.10;;;21.40;69.20;;;;;;5044917;28;20457;-37
2022/12/06 10:05:06;;;;;;;3.23;2.73;;;21.40;69.20;;;;;;5045077;28;20471;-38
2022/12/06 10:07:41;;;;;;;4.60;2.87;;;21.40;69.20;;;;;;5006035;28;20485;-38
2022/12/06 10:10:21;;;;;;;3.83;2.57;;;21.30;69.00;;;;;;5037615;28;20825;-35
2022/12/06 10:13:01;;;;;;;6.80;3.07;;;21.20;69.40;;;;;;5044580;28;20472;-35
2022/12/06 10:15:39;;;;;;;10.60;3.10;;;21.20;69.50;;;;;;5048821;28;20465;-35
2022/12/06 10:18:22;;;;;;;3.10;2.80;;;21.30;69.40;;;;;;5045898;28;20465;-35
2022/12/06 10:20:53;;;;;;;3.00;2.80;;;21.20;69.50;;;;;;5049910;28;20476;-35
2022/12/06 10:23:35;;;;;;;5.97;2.90;;;21.10;69.50;;;;;;5051475;28;20460;-35
2022/12/06 10:26:12;;;;;;;3.57;2.43;;;21.20;69.50;;;;;;5037136;28;20462;-35
2022/12/06 10:28:44;;;;;;;6.87;3.30;;;21.20;69.40;;;;;;5052370;28;20560;-37
2022/12/06 10:31:22;;;;;;;2.40;2.20;;;21.20;69.60;;;;;;5047216;28;20484;-35
2022/12/06 10:33:57;;;;;;;5.60;2.50;;;21.20;69.50;;;;;;5043833;28;20961;-37
2022/12/06 10:36:36;;;;;;;3.30;2.53;;;21.20;69.60;;;;;;5044119;28;20458;-35
2022/12/06 10:39:11;;;;;;;4.60;3.60;;;21.20;69.70;;;;;;5046932;28;20440;-35
2022/12/06 10:41:43;;;;;;;2.77;2.57;;;21.20;69.70;;;;;;5037084;28;20846;-35
2022/12/06 10:44:19;;;;;;;2.63;2.43;;;21.20;69.70;;;;;;5052727;28;20465;-36
2022/12/06 10:47:02;;;;;;;2.97;2.50;;;21.10;69.60;;;;;;5046800;28;20980;-36
2022/12/06 10:49:40;;;;;;;3.50;2.13;;;21.10;69.60;;;;;;5044917;28;20982;-34
2022/12/06 10:52:20;;;;;;;2.60;2.40;;;21.10;69.60;;;;;;5045734;28;20453;-35
2022/12/06 10:54:56;;;;;;;3.27;2.43;;;21.10;69.60;;;;;;5051512;28;20473;-36
2022/12/06 10:57:30;;;;;;;3.57;2.40;;;21.10;69.60;;;;;;5047931;28;20473;-35
2022/12/06 11:00:04;;;;;;;3.00;2.70;;;21.10;69.60;;;;;;5044300;28;20469;-35
2022/12/06 11:02:38;;;;;;;1.90;1.73;;;21.20;69.60;;;;;;5040965;28;20989;-35
2022/12/06 11:05:15;;;;;;;2.90;2.60;;;21.20;70.30;;;;;;5048824;28;20531;-35
2022/12/06 11:07:45;;;;;;;2.70;2.50;;;21.20;69.60;;;;;;5051368;28;20473;-35
2022/12/06 11:10:19;;;;;;;2.53;2.33;;;21.20;69.60;;;;;;5048208;28;20465;-35
2022/12/06 11:12:48;;;;;;;2.40;2.20;;;21.20;69.60;;;;;;5046097;28;20457;-36
2022/12/06 11:15:20;;;;;;;2.40;2.20;;;21.20;69.50;;;;;;5048160;28;20450;-35
2022/12/06 11:17:50;;;;;;;2.63;2.43;;;21.20;69.40;;;;;;5050396;28;21027;-36
2022/12/06 11:20:25;;;;;;;2.30;2.10;;;21.20;69.40;;;;;;5048507;28;20530;-34
2022/12/06 11:23:04;;;;;;;4.00;2.57;;;21.20;69.40;;;;;;5046007;28;20856;-35
2022/12/06 11:25:39;;;;;;;2.50;2.30;;;21.20;69.50;;;;;;5045963;28;20712;-35
2022/12/06 11:28:20;;;;;;;3.27;3.03;;;21.20;69.60;;;;;;5045634;28;21007;-37
2022/12/06 11:30:49;;;;;;;3.00;2.77;;;21.30;69.70;;;;;;5045325;28;20549;-35
2022/12/06 11:33:16;;;;;;;2.80;2.33;;;21.30;69.90;;;;;;5045131;28;20465;-34
2022/12/06 11:35:46;;;;;;;3.23;2.60;;;21.30;70.20;;;;;;5047204;28;20461;-35
2022/12/06 11:38:14;;;;;;;2.70;2.43;;;21.30;70.30;;;;;;5044301;28;20458;-35
2022/12/06 11:40:43;;;;;;;3.13;2.60;;;21.30;70.60;;;;;;5039160;28;20470;-35
2022/12/06 11:43:15;;;;;;;2.10;1.90;;;21.30;70.70;;;;;;5036116;28;20466;-36
2022/12/06 11:45:44;;;;;;;2.73;2.50;;;21.30;70.60;;;;;;5049314;28;20458;-38
2022/12/06 11:48:15;;;;;;;2.80;2.57;;;21.30;70.50;;;;;;5042747;28;20978;-35
2022/12/06 11:50:45;;;;;;;1.90;1.80;;;21.30;70.50;;;;;;5044249;28;20839;-35
2022/12/06 11:53:19;;;;;;;2.70;2.23;;;21.30;70.40;;;;;;5050060;28;20459;-35
2022/12/06 11:55:49;;;;;;;15.67;3.93;;;21.30;70.70;;;;;;5046542;28;20448;-34
2022/12/06 11:58:21;;;;;;;8.60;3.53;;;21.20;71.10;;;;;;5041017;28;20507;-34
2022/12/06 12:01:01;;;;;;;4.70;2.90;;;21.20;71.40;;;;;;5039729;28;20461;-41
2022/12/06 12:03:31;;;;;;;7.30;2.63;;;21.20;71.40;;;;;;5045415;28;20482;-47
2022/12/06 12:06:17;;;;;;;5.40;2.90;;;21.30;71.20;;;;;;5039371;28;20833;-42
2022/12/06 12:08:56;;;;;;;4.73;3.13;;;21.40;71.30;;;;;;5037739;28;20501;-42
2022/12/06 12:11:26;;;;;;;5.90;3.13;;;21.40;71.20;;;;;;5038644;28;20550;-43
2022/12/06 12:13:55;;;;;;;6.33;2.87;;;21.50;71.40;;;;;;5039209;28;20637;-42
2022/12/06 12:16:25;;;;;;;6.37;3.17;;;21.50;71.20;;;;;;5043385;28;20496;-46
2022/12/06 12:18:57;;;;;;;3.40;2.30;;;21.50;71.20;;;;;;5044052;28;20520;-42
2022/12/06 12:21:36;;;;;;;4.93;3.00;;;21.50;71.30;;;;;;5042392;28;20485;-42
2022/12/06 12:24:04;;;;;;;4.73;3.03;;;21.60;71.50;;;;;;5041087;28;20461;-45
2022/12/06 12:26:37;;;;;;;6.43;2.97;;;21.60;71.40;;;;;;5045378;28;20501;-45
2022/12/06 12:29:14;;;;;;;4.30;2.97;;;21.60;71.40;;;;;;5041593;28;20481;-41
2022/12/06 12:31:50;;;;;;;3.43;2.77;;;21.50;71.50;;;;;;5039193;28;20970;-49
2022/12/06 12:34:21;;;;;;;3.93;2.97;;;21.60;71.60;;;;;;5041304;28;21013;-44
2022/12/06 12:36:50;;;;;;;3.67;2.57;;;21.60;71.50;;;;;;5042521;28;20469;-41
2022/12/06 12:39:31;;;;;;;3.53;2.80;;;21.60;72.30;;;;;;5043467;28;20504;-41
2022/12/06 12:41:58;;;;;;;3.53;2.87;;;21.70;71.60;;;;;;5043456;28;20897;-42
2022/12/06 12:44:28;;;;;;;3.17;2.60;;;21.70;71.70;;;;;;5043156;28;20480;-42
2022/12/06 12:46:56;;;;;;;3.10;2.70;;;21.70;71.70;;;;;;5036712;28;20558;-43
2022/12/06 12:49:32;;;;;;;4.07;2.97;;;21.70;71.70;;;;;;5043485;28;20484;-49
2022/12/06 12:52:01;;;;;;;3.47;2.80;;;21.70;71.80;;;;;;5041199;28;20461;-45
2022/12/06 12:54:30;;;;;;;6.27;2.70;;;21.70;71.70;;;;;;5040446;28;20457;-52
2022/12/06 12:56:58;;;;;;;3.27;2.83;;;21.70;71.80;;;;;;5040486;28;20876;-42
2022/12/06 12:59:28;;;;;;;4.17;3.17;;;21.70;71.80;;;;;;5048211;28;20457;-42
2022/12/06 13:02:01;;;;;;;4.27;3.53;;;21.70;71.90;;;;;;5040522;28;20469;-43
2022/12/06 13:04:42;;;;;;;3.30;2.77;;;21.60;72.10;;;;;;5041396;28;20466;-43
2022/12/06 13:07:17;;;;;;;3.80;3.40;;;21.80;72.20;;;;;;5042024;28;20457;-42
2022/12/06 13:09:50;;;;;;;10.73;4.37;;;21.70;72.20;;;;;;5042483;28;20489;-46
2022/12/06 13:12:23;;;;;;;6.37;4.03;;;21.50;72.70;;;;;;5044489;28;20466;-42
2022/12/06 13:14:54;;;;;;;5.60;3.43;;;21.50;72.90;;;;;;5045129;28;20541;-42
2022/12/06 13:17:24;;;;;;;3.63;3.10;;;21.50;72.90;;;;;;5041739;28;20705;-41
2022/12/06 13:19:54;;;;;;;3.80;3.03;;;21.50;73.10;;;;;;5047589;28;20489;-41
2022/12/06 13:22:25;;;;;;;3.37;3.00;;;21.60;72.60;;;;;;5040531;28;20454;-43
2022/12/06 13:24:59;;;;;;;4.30;3.40;;;21.60;72.70;;;;;;5048094;28;20449;-47
2022/12/06 13:27:29;;;;;;;4.97;3.47;;;21.70;72.70;;;;;;5047417;28;20816;-46
2022/12/06 13:30:01;;;;;;;4.70;3.27;;;21.70;72.60;;;;;;5035940;28;20482;-44
2022/12/06 13:32:33;;;;;;;3.70;2.80;;;21.80;72.50;;;;;;5046733;28;20458;-49
2022/12/06 13:35:06;;;;;;;5.67;3.80;;;21.70;72.30;;;;;;5047854;28;20591;-46
2022/12/06 13:37:43;;;;;;;3.07;2.73;;;21.70;72.30;;;;;;5047427;28;20834;-43
2022/12/06 13:40:45;;;;;;;4.50;3.10;;;21.70;72.50;;;;;;5042767;28;20464;-46